Terminal Aerodrome Forecast
Issued by NWS Duluth, MN

Home | Current Version | Previous Version | Text Only | Print | Product List | Glossary On
Versions: 1 2 3 4 5 6 7 8 9 10 11 12 13 14 15 16 17 18 19 20 21 22
081
FTUS43 KDLH 022350
TAFDLH
TAF
KDLH 022350Z 0300/0324 03012KT 2SM -SN SCT010 OVC014
      TEMPO 0300/0304 3/4SM -SN OVC008
     FM030600 02014KT 4SM -SN OVC017
     FM031200 35012G18KT P6SM OVC025
     FM031800 33014G20KT P6SM BKN035=

USA.gov is the U.S. government's official web portal to all federal, state and local government web resources and services.